sensor_id;sensor_type;location;lat;lon;timestamp;pressure;altitude;pressure_sealevel;temperature;humidity
11523;BME280;70090;43.208;27.904;2024-03-06T00:00:00;100808.41;;;10.01;100.00
11523;BME280;70090;43.208;27.904;2024-03-06T00:02:27;100802.91;;;10.01;100.00
11523;BME280;70090;43.208;27.904;2024-03-06T00:04:54;100796.34;;;9.87;100.00
11523;BME280;70090;43.208;27.904;2024-03-06T00:07:21;100799.47;;;9.85;100.00
11523;BME280;70090;43.208;27.904;2024-03-06T00:09:48;100793.91;;;9.82;100.00
11523;BME280;70090;43.208;27.904;2024-03-06T00:12:15;100790.50;;;9.70;100.00
11523;BME280;70090;43.208;27.904;2024-03-06T00:14:44;100782.50;;;9.42;100.00
11523;BME280;70090;43.208;27.904;2024-03-06T00:17:12;100793.69;;;9.34;100.00
11523;BME280;70090;43.208;27.904;2024-03-06T00:19:39;100788.28;;;9.37;100.00
11523;BME280;70090;43.208;27.904;2024-03-06T00:22:06;100786.16;;;9.31;100.00
11523;BME280;70090;43.208;27.904;2024-03-06T00:24:33;100788.84;;;9.27;100.00
11523;BME280;70090;43.208;27.904;2024-03-06T00:27:00;100783.94;;;9.17;100.00
11523;BME280;70090;43.208;27.904;2024-03-06T00:29:30;100787.31;;;9.11;100.00
11523;BME280;70090;43.208;27.904;2024-03-06T00:31:57;100779.78;;;9.08;100.00
11523;BME280;70090;43.208;27.904;2024-03-06T00:34:26;100785.66;;;9.06;100.00
11523;BME280;70090;43.208;27.904;2024-03-06T00:36:53;100788.41;;;9.06;100.00
11523;BME280;70090;43.208;27.904;2024-03-06T00:39:21;100786.00;;;9.05;100.00
11523;BME280;70090;43.208;27.904;2024-03-06T00:41:48;100793.94;;;9.10;100.00
11523;BME280;70090;43.208;27.904;2024-03-06T00:44:15;100792.44;;;9.12;100.00
11523;BME280;70090;43.208;27.904;2024-03-06T00:46:42;100793.06;;;9.06;100.00
11523;BME280;70090;43.208;27.904;2024-03-06T00:49:09;100798.84;;;9.01;100.00
11523;BME280;70090;43.208;27.904;2024-03-06T00:51:38;100785.28;;;9.08;100.00
11523;BME280;70090;43.208;27.904;2024-03-06T00:54:05;100787.88;;;9.01;100.00
11523;BME280;70090;43.208;27.904;2024-03-06T00:56:32;100796.53;;;9.03;100.00
11523;BME280;70090;43.208;27.904;2024-03-06T00:58:59;100791.50;;;9.05;100.00
11523;BME280;70090;43.208;27.904;2024-03-06T01:01:26;100794.16;;;9.01;100.00
11523;BME280;70090;43.208;27.904;2024-03-06T01:03:53;100795.69;;;8.83;100.00
11523;BME280;70090;43.208;27.904;2024-03-06T01:06:20;100795.06;;;8.90;100.00
11523;BME280;70090;43.208;27.904;2024-03-06T01:08:49;100797.34;;;8.88;100.00
11523;BME280;70090;43.208;27.904;2024-03-06T01:11:16;100787.41;;;8.80;100.00
11523;BME280;70090;43.208;27.904;2024-03-06T01:13:43;100794.47;;;8.81;100.00
11523;BME280;70090;43.208;27.904;2024-03-06T01:16:10;100796.50;;;8.84;100.00
11523;BME280;70090;43.208;27.904;2024-03-06T01:18:37;100790.28;;;8.87;100.00
11523;BME280;70090;43.208;27.904;2024-03-06T01:21:04;100791.88;;;8.88;100.00
11523;BME280;70090;43.208;27.904;2024-03-06T01:23:31;100793.13;;;8.75;100.00
11523;BME280;70090;43.208;27.904;2024-03-06T01:26:00;100795.34;;;8.69;100.00
11523;BME280;70090;43.208;27.904;2024-03-06T01:28:27;100797.75;;;8.71;100.00
11523;BME280;70090;43.208;27.904;2024-03-06T01:30:54;100796.16;;;8.70;100.00
11523;BME280;70090;43.208;27.904;2024-03-06T01:33:21;100803.78;;;8.61;100.00
11523;BME280;70090;43.208;27.904;2024-03-06T01:35:48;100804.03;;;8.56;100.00
11523;BME280;70090;43.208;27.904;2024-03-06T01:38:15;100803.78;;;8.45;100.00
11523;BME280;70090;43.208;27.904;2024-03-06T01:40:43;100809.91;;;8.39;100.00
11523;BME280;70090;43.208;27.904;2024-03-06T01:43:19;100808.31;;;8.38;100.00
11523;BME280;70090;43.208;27.904;2024-03-06T01:45:48;100815.63;;;8.34;100.00
11523;BME280;70090;43.208;27.904;2024-03-06T01:48:16;100810.03;;;8.15;100.00
11523;BME280;70090;43.208;27.904;2024-03-06T01:50:43;100824.66;;;8.19;100.00
11523;BME280;70090;43.208;27.904;2024-03-06T01:53:11;100813.47;;;8.12;100.00
11523;BME280;70090;43.208;27.904;2024-03-06T01:55:38;100821.13;;;8.06;100.00
11523;BME280;70090;43.208;27.904;2024-03-06T01:58:06;100830.91;;;7.92;100.00
11523;BME280;70090;43.208;27.904;2024-03-06T02:00:35;100823.94;;;7.94;100.00
11523;BME280;70090;43.208;27.904;2024-03-06T02:03:03;100830.03;;;7.88;100.00
11523;BME280;70090;43.208;27.904;2024-03-06T02:05:30;100833.22;;;7.90;100.00
11523;BME280;70090;43.208;27.904;2024-03-06T02:07:58;100828.66;;;7.94;100.00
11523;BME280;70090;43.208;27.904;2024-03-06T02:10:25;100827.75;;;7.90;100.00
11523;BME280;70090;43.208;27.904;2024-03-06T02:12:53;100832.19;;;7.67;100.00
11523;BME280;70090;43.208;27.904;2024-03-06T02:15:20;100836.19;;;7.69;100.00
11523;BME280;70090;43.208;27.904;2024-03-06T02:17:49;100832.63;;;7.69;100.00
11523;BME280;70090;43.208;27.904;2024-03-06T02:20:16;100836.50;;;7.68;100.00
11523;BME280;70090;43.208;27.904;2024-03-06T02:22:45;100838.81;;;7.66;100.00
11523;BME280;70090;43.208;27.904;2024-03-06T02:25:12;100837.22;;;7.65;100.00
11523;BME280;70090;43.208;27.904;2024-03-06T02:27:40;100849.75;;;7.66;100.00
11523;BME280;70090;43.208;27.904;2024-03-06T02:30:08;100839.50;;;7.63;100.00
11523;BME280;70090;43.208;27.904;2024-03-06T02:32:35;100846.13;;;7.62;100.00
11523;BME280;70090;43.208;27.904;2024-03-06T02:35:02;100846.13;;;7.62;100.00
11523;BME280;70090;43.208;27.904;2024-03-06T02:37:34;100845.78;;;7.63;100.00
11523;BME280;70090;43.208;27.904;2024-03-06T02:40:03;100845.88;;;7.67;100.00
11523;BME280;70090;43.208;27.904;2024-03-06T02:42:32;100852.94;;;7.68;100.00
11523;BME280;70090;43.208;27.904;2024-03-06T02:44:59;100860.66;;;7.78;100.00
11523;BME280;70090;43.208;27.904;2024-03-06T02:47:26;100846.97;;;7.78;100.00
11523;BME280;70090;43.208;27.904;2024-03-06T02:49:53;100859.09;;;7.77;100.00
11523;BME280;70090;43.208;27.904;2024-03-06T02:52:21;100857.53;;;7.64;100.00
11523;BME280;70090;43.208;27.904;2024-03-06T02:54:48;100856.06;;;7.66;100.00
11523;BME280;70090;43.208;27.904;2024-03-06T02:57:17;100855.03;;;7.59;100.00
11523;BME280;70090;43.208;27.904;2024-03-06T02:59:44;100862.47;;;7.58;100.00
11523;BME280;70090;43.208;27.904;2024-03-06T03:02:10;100861.78;;;7.49;100.00
11523;BME280;70090;43.208;27.904;2024-03-06T03:04:37;100866.72;;;7.44;100.00
11523;BME280;70090;43.208;27.904;2024-03-06T03:07:04;100857.50;;;7.36;100.00
11523;BME280;70090;43.208;27.904;2024-03-06T03:09:31;100866.31;;;7.30;100.00
11523;BME280;70090;43.208;27.904;2024-03-06T03:11:58;100861.56;;;7.42;100.00
11523;BME280;70090;43.208;27.904;2024-03-06T03:14:26;100863.28;;;7.47;100.00
11523;BME280;70090;43.208;27.904;2024-03-06T03:16:53;100861.25;;;7.44;100.00
11523;BME280;70090;43.208;27.904;2024-03-06T03:19:20;100869.56;;;7.47;100.00
11523;BME280;70090;43.208;27.904;2024-03-06T03:21:47;100867.13;;;7.58;100.00
11523;BME280;70090;43.208;27.904;2024-03-06T03:24:14;100868.28;;;7.57;100.00
11523;BME280;70090;43.208;27.904;2024-03-06T03:26:41;100879.56;;;7.67;100.00
11523;BME280;70090;43.208;27.904;2024-03-06T03:29:08;100880.56;;;7.75;100.00
11523;BME280;70090;43.208;27.904;2024-03-06T03:31:37;100878.63;;;7.63;100.00
11523;BME280;70090;43.208;27.904;2024-03-06T03:34:04;100877.34;;;7.45;100.00
11523;BME280;70090;43.208;27.904;2024-03-06T03:36:31;100881.69;;;7.34;100.00
11523;BME280;70090;43.208;27.904;2024-03-06T03:38:59;100893.88;;;7.37;100.00
11523;BME280;70090;43.208;27.904;2024-03-06T03:41:26;100897.75;;;7.36;100.00
11523;BME280;70090;43.208;27.904;2024-03-06T03:43:53;100895.25;;;7.31;100.00
11523;BME280;70090;43.208;27.904;2024-03-06T03:46:20;100896.28;;;7.27;100.00
11523;BME280;70090;43.208;27.904;2024-03-06T03:48:48;100900.50;;;7.24;100.00
11523;BME280;70090;43.208;27.904;2024-03-06T03:51:16;100911.47;;;7.12;100.00
11523;BME280;70090;43.208;27.904;2024-03-06T03:53:43;100904.03;;;7.13;100.00
11523;BME280;70090;43.208;27.904;2024-03-06T03:56:10;100906.13;;;7.16;100.00
11523;BME280;70090;43.208;27.904;2024-03-06T03:58:38;100913.06;;;7.13;100.00
11523;BME280;70090;43.208;27.904;2024-03-06T04:01:05;100913.53;;;7.03;100.00
11523;BME280;70090;43.208;27.904;2024-03-06T04:03:32;100916.38;;;6.83;100.00
11523;BME280;70090;43.208;27.904;2024-03-06T04:06:00;100925.47;;;6.87;100.00
11523;BME280;70090;43.208;27.904;2024-03-06T04:08:27;100925.03;;;6.97;100.00
11523;BME280;70090;43.208;27.904;2024-03-06T04:10:54;100927.09;;;7.00;100.00
11523;BME280;70090;43.208;27.904;2024-03-06T04:13:21;100933.69;;;6.99;100.00
11523;BME280;70090;43.208;27.904;2024-03-06T04:15:48;100937.25;;;6.99;100.00
11523;BME280;70090;43.208;27.904;2024-03-06T04:18:16;100940.63;;;6.96;100.00
11523;BME280;70090;43.208;27.904;2024-03-06T04:20:43;100939.75;;;6.92;100.00
11523;BME280;70090;43.208;27.904;2024-03-06T04:23:11;100936.31;;;6.83;100.00
11523;BME280;70090;43.208;27.904;2024-03-06T04:25:38;100939.94;;;6.75;100.00
11523;BME280;70090;43.208;27.904;2024-03-06T04:28:06;100946.59;;;7.10;100.00
11523;BME280;70090;43.208;27.904;2024-03-06T04:30:34;100954.53;;;6.79;100.00
11523;BME280;70090;43.208;27.904;2024-03-06T04:33:01;100962.50;;;6.72;100.00
11523;BME280;70090;43.208;27.904;2024-03-06T04:35:28;100967.13;;;6.60;100.00
11523;BME280;70090;43.208;27.904;2024-03-06T04:37:55;100964.31;;;6.56;100.00
11523;BME280;70090;43.208;27.904;2024-03-06T04:40:24;100973.09;;;6.62;100.00
11523;BME280;70090;43.208;27.904;2024-03-06T04:42:51;100971.09;;;6.50;100.00
11523;BME280;70090;43.208;27.904;2024-03-06T04:45:18;100970.66;;;6.48;100.00
11523;BME280;70090;43.208;27.904;2024-03-06T04:47:45;100973.38;;;6.48;100.00
11523;BME280;70090;43.208;27.904;2024-03-06T04:50:12;100984.19;;;6.45;100.00
11523;BME280;70090;43.208;27.904;2024-03-06T04:52:41;100975.66;;;6.46;100.00
11523;BME280;70090;43.208;27.904;2024-03-06T04:55:08;100980.44;;;6.49;100.00
11523;BME280;70090;43.208;27.904;2024-03-06T04:57:38;100975.66;;;6.46;100.00
11523;BME280;70090;43.208;27.904;2024-03-06T05:00:07;100974.53;;;6.47;100.00
11523;BME280;70090;43.208;27.904;2024-03-06T05:02:35;100974.88;;;6.58;100.00
11523;BME280;70090;43.208;27.904;2024-03-06T05:05:03;100983.00;;;6.66;100.00
11523;BME280;70090;43.208;27.904;2024-03-06T05:07:31;100978.34;;;6.79;100.00
11523;BME280;70090;43.208;27.904;2024-03-06T05:09:59;100981.78;;;6.76;100.00
11523;BME280;70090;43.208;27.904;2024-03-06T05:12:27;100993.72;;;6.71;100.00
11523;BME280;70090;43.208;27.904;2024-03-06T05:14:56;100998.75;;;6.81;100.00
11523;BME280;70090;43.208;27.904;2024-03-06T05:17:23;100993.75;;;6.95;100.00
11523;BME280;70090;43.208;27.904;2024-03-06T05:19:50;100990.13;;;7.03;100.00
11523;BME280;70090;43.208;27.904;2024-03-06T05:22:18;101000.06;;;7.20;100.00
11523;BME280;70090;43.208;27.904;2024-03-06T05:24:45;101008.16;;;7.16;100.00
11523;BME280;70090;43.208;27.904;2024-03-06T05:27:12;101006.69;;;7.19;100.00
11523;BME280;70090;43.208;27.904;2024-03-06T05:29:42;101008.84;;;7.25;100.00
11523;BME280;70090;43.208;27.904;2024-03-06T05:32:11;101007.50;;;7.19;100.00
11523;BME280;70090;43.208;27.904;2024-03-06T05:34:38;101007.03;;;7.17;100.00
11523;BME280;70090;43.208;27.904;2024-03-06T05:37:05;101019.34;;;7.23;100.00
11523;BME280;70090;43.208;27.904;2024-03-06T05:39:32;101020.72;;;7.29;100.00
11523;BME280;70090;43.208;27.904;2024-03-06T05:42:02;101026.31;;;7.32;100.00
11523;BME280;70090;43.208;27.904;2024-03-06T05:44:30;101025.53;;;7.44;100.00
11523;BME280;70090;43.208;27.904;2024-03-06T05:46:58;101037.19;;;7.41;100.00
11523;BME280;70090;43.208;27.904;2024-03-06T05:49:28;101048.56;;;7.43;100.00
11523;BME280;70090;43.208;27.904;2024-03-06T05:51:55;101038.53;;;7.47;100.00
11523;BME280;70090;43.208;27.904;2024-03-06T05:54:22;101038.66;;;7.62;100.00
11523;BME280;70090;43.208;27.904;2024-03-06T05:56:50;101041.81;;;7.76;100.00
11523;BME280;70090;43.208;27.904;2024-03-06T05:59:19;101044.47;;;7.85;100.00
11523;BME280;70090;43.208;27.904;2024-03-06T06:01:46;101048.69;;;7.82;100.00
11523;BME280;70090;43.208;27.904;2024-03-06T06:04:14;101047.41;;;7.80;100.00
11523;BME280;70090;43.208;27.904;2024-03-06T06:06:42;101052.00;;;7.76;100.00
11523;BME280;70090;43.208;27.904;2024-03-06T06:09:09;101039.31;;;7.71;100.00
11523;BME280;70090;43.208;27.904;2024-03-06T06:11:41;101030.09;;;7.76;100.00
11523;BME280;70090;43.208;27.904;2024-03-06T06:14:09;101028.25;;;7.68;100.00
11523;BME280;70090;43.208;27.904;2024-03-06T06:16:36;101017.56;;;7.51;100.00
11523;BME280;70090;43.208;27.904;2024-03-06T06:19:04;101036.47;;;7.68;100.00
11523;BME280;70090;43.208;27.904;2024-03-06T06:21:32;101034.41;;;7.77;100.00
11523;BME280;70090;43.208;27.904;2024-03-06T06:24:02;101037.94;;;7.89;100.00
11523;BME280;70090;43.208;27.904;2024-03-06T06:26:30;101043.59;;;8.08;100.00
11523;BME280;70090;43.208;27.904;2024-03-06T06:28:57;101044.06;;;8.22;100.00
11523;BME280;70090;43.208;27.904;2024-03-06T06:31:24;101041.66;;;8.21;100.00
11523;BME280;70090;43.208;27.904;2024-03-06T06:33:52;101040.75;;;8.17;100.00
11523;BME280;70090;43.208;27.904;2024-03-06T06:36:20;101042.56;;;8.25;100.00
11523;BME280;70090;43.208;27.904;2024-03-06T06:38:47;101040.63;;;8.13;100.00
11523;BME280;70090;43.208;27.904;2024-03-06T06:41:16;101051.03;;;8.20;100.00
11523;BME280;70090;43.208;27.904;2024-03-06T06:43:44;101049.56;;;8.22;100.00
11523;BME280;70090;43.208;27.904;2024-03-06T06:46:12;101046.66;;;8.31;100.00
11523;BME280;70090;43.208;27.904;2024-03-06T06:48:39;101044.25;;;8.29;100.00
11523;BME280;70090;43.208;27.904;2024-03-06T06:51:06;101044.69;;;8.43;100.00
11523;BME280;70090;43.208;27.904;2024-03-06T06:53:35;101051.78;;;8.44;100.00
11523;BME280;70090;43.208;27.904;2024-03-06T06:56:02;101046.88;;;8.38;100.00
11523;BME280;70090;43.208;27.904;2024-03-06T06:58:30;101050.34;;;8.23;100.00
11523;BME280;70090;43.208;27.904;2024-03-06T07:00:57;101059.34;;;8.35;100.00
11523;BME280;70090;43.208;27.904;2024-03-06T07:03:25;101059.56;;;8.42;100.00
11523;BME280;70090;43.208;27.904;2024-03-06T07:05:55;101060.56;;;8.50;100.00
11523;BME280;70090;43.208;27.904;2024-03-06T07:08:23;101066.44;;;8.64;100.00
11523;BME280;70090;43.208;27.904;2024-03-06T07:10:50;101066.31;;;8.88;100.00
11523;BME280;70090;43.208;27.904;2024-03-06T07:13:19;101067.59;;;9.06;100.00
11523;BME280;70090;43.208;27.904;2024-03-06T07:15:47;101070.09;;;9.11;100.00
11523;BME280;70090;43.208;27.904;2024-03-06T07:18:14;101071.00;;;9.15;100.00
11523;BME280;70090;43.208;27.904;2024-03-06T07:20:41;101067.44;;;9.30;100.00
11523;BME280;70090;43.208;27.904;2024-03-06T07:23:08;101077.28;;;9.46;100.00
11523;BME280;70090;43.208;27.904;2024-03-06T07:25:35;101071.97;;;9.69;100.00
11523;BME280;70090;43.208;27.904;2024-03-06T07:28:03;101066.81;;;9.82;100.00
11523;BME280;70090;43.208;27.904;2024-03-06T07:30:30;101064.59;;;9.88;98.17
11523;BME280;70090;43.208;27.904;2024-03-06T07:32:58;101072.91;;;9.91;97.78
11523;BME280;70090;43.208;27.904;2024-03-06T07:35:26;101072.16;;;9.76;97.42
11523;BME280;70090;43.208;27.904;2024-03-06T07:37:53;101069.75;;;9.59;98.71
11523;BME280;70090;43.208;27.904;2024-03-06T07:40:20;101070.63;;;9.63;99.48
11523;BME280;70090;43.208;27.904;2024-03-06T07:42:47;101071.88;;;9.80;99.00
11523;BME280;70090;43.208;27.904;2024-03-06T07:45:14;101070.09;;;9.73;98.19
11523;BME280;70090;43.208;27.904;2024-03-06T07:47:41;101075.66;;;9.91;98.33
11523;BME280;70090;43.208;27.904;2024-03-06T07:50:10;101084.00;;;9.95;96.57
11523;BME280;70090;43.208;27.904;2024-03-06T07:52:38;101076.03;;;9.90;97.35
11523;BME280;70090;43.208;27.904;2024-03-06T07:55:05;101074.34;;;10.01;98.08
11523;BME280;70090;43.208;27.904;2024-03-06T07:57:32;101073.94;;;10.18;97.18
11523;BME280;70090;43.208;27.904;2024-03-06T07:59:59;101075.47;;;10.15;95.35
11523;BME280;70090;43.208;27.904;2024-03-06T08:02:26;101076.63;;;10.14;96.51
11523;BME280;70090;43.208;27.904;2024-03-06T08:04:53;101077.69;;;9.94;96.04
11523;BME280;70090;43.208;27.904;2024-03-06T08:07:22;101074.69;;;9.99;96.16
11523;BME280;70090;43.208;27.904;2024-03-06T08:09:49;101079.38;;;10.14;95.55
11523;BME280;70090;43.208;27.904;2024-03-06T08:12:16;101086.38;;;10.27;94.91
11523;BME280;70090;43.208;27.904;2024-03-06T08:14:43;101088.69;;;10.44;95.42
11523;BME280;70090;43.208;27.904;2024-03-06T08:17:11;101080.59;;;10.51;93.19
11523;BME280;70090;43.208;27.904;2024-03-06T08:19:38;101088.53;;;10.37;92.75
11523;BME280;70090;43.208;27.904;2024-03-06T08:22:05;101076.78;;;10.21;93.01
11523;BME280;70090;43.208;27.904;2024-03-06T08:24:33;101089.75;;;10.05;94.89
11523;BME280;70090;43.208;27.904;2024-03-06T08:27:00;101092.22;;;10.26;95.96
11523;BME280;70090;43.208;27.904;2024-03-06T08:29:28;101086.78;;;10.48;94.33
11523;BME280;70090;43.208;27.904;2024-03-06T08:31:55;101087.91;;;10.63;93.82
11523;BME280;70090;43.208;27.904;2024-03-06T08:34:25;101092.91;;;10.76;92.17
11523;BME280;70090;43.208;27.904;2024-03-06T08:36:52;101092.75;;;10.69;91.35
11523;BME280;70090;43.208;27.904;2024-03-06T08:39:20;101092.53;;;10.59;92.20
11523;BME280;70090;43.208;27.904;2024-03-06T08:41:49;101089.63;;;10.71;91.95
11523;BME280;70090;43.208;27.904;2024-03-06T08:44:16;101094.91;;;10.79;91.18
11523;BME280;70090;43.208;27.904;2024-03-06T08:46:43;101094.06;;;10.94;90.42
11523;BME280;70090;43.208;27.904;2024-03-06T08:49:10;101079.69;;;11.04;89.14
11523;BME280;70090;43.208;27.904;2024-03-06T08:51:39;101077.78;;;11.08;87.71
11523;BME280;70090;43.208;27.904;2024-03-06T08:54:06;101087.16;;;11.04;87.17
11523;BME280;70090;43.208;27.904;2024-03-06T08:56:35;101084.91;;;10.90;88.04
11523;BME280;70090;43.208;27.904;2024-03-06T08:59:04;101087.63;;;10.68;89.13
11523;BME280;70090;43.208;27.904;2024-03-06T09:01:31;101086.09;;;10.51;89.98
11523;BME280;70090;43.208;27.904;2024-03-06T09:03:58;101099.44;;;10.49;90.31
11523;BME280;70090;43.208;27.904;2024-03-06T09:06:25;101094.94;;;10.60;89.07
11523;BME280;70090;43.208;27.904;2024-03-06T09:08:52;101090.50;;;10.75;88.70
11523;BME280;70090;43.208;27.904;2024-03-06T09:11:19;101088.66;;;11.01;88.91
11523;BME280;70090;43.208;27.904;2024-03-06T09:13:48;101089.63;;;11.31;87.07
11523;BME280;70090;43.208;27.904;2024-03-06T09:16:16;101099.09;;;11.53;84.52
11523;BME280;70090;43.208;27.904;2024-03-06T09:18:43;101091.34;;;11.58;82.73
11523;BME280;70090;43.208;27.904;2024-03-06T09:21:10;101099.16;;;11.56;83.28
11523;BME280;70090;43.208;27.904;2024-03-06T09:23:37;101096.16;;;11.65;83.06
11523;BME280;70090;43.208;27.904;2024-03-06T09:26:04;101096.63;;;11.48;81.54
11523;BME280;70090;43.208;27.904;2024-03-06T09:28:32;101095.84;;;11.47;82.21
11523;BME280;70090;43.208;27.904;2024-03-06T09:30:59;101101.72;;;11.46;82.52
11523;BME280;70090;43.208;27.904;2024-03-06T09:33:28;101100.78;;;11.57;82.82
11523;BME280;70090;43.208;27.904;2024-03-06T09:35:55;101103.84;;;11.56;82.48
11523;BME280;70090;43.208;27.904;2024-03-06T09:38:23;101101.75;;;11.68;82.18
11523;BME280;70090;43.208;27.904;2024-03-06T09:40:50;101098.66;;;11.73;79.99
11523;BME280;70090;43.208;27.904;2024-03-06T09:43:18;101093.44;;;11.91;80.21
11523;BME280;70090;43.208;27.904;2024-03-06T09:45:48;101097.84;;;11.95;78.36
11523;BME280;70090;43.208;27.904;2024-03-06T09:48:16;101095.72;;;11.85;78.10
11523;BME280;70090;43.208;27.904;2024-03-06T09:50:48;101096.16;;;11.87;78.84
11523;BME280;70090;43.208;27.904;2024-03-06T09:53:16;101093.88;;;11.93;78.14
11523;BME280;70090;43.208;27.904;2024-03-06T09:55:46;101102.72;;;11.79;79.46
11523;BME280;70090;43.208;27.904;2024-03-06T09:58:13;101098.03;;;11.83;79.91
11523;BME280;70090;43.208;27.904;2024-03-06T10:00:40;101102.59;;;11.72;79.96
11523;BME280;70090;43.208;27.904;2024-03-06T10:03:08;101093.09;;;11.70;80.03
11523;BME280;70090;43.208;27.904;2024-03-06T10:05:37;101097.97;;;11.80;80.50
11523;BME280;70090;43.208;27.904;2024-03-06T10:08:06;101104.53;;;11.94;79.61
11523;BME280;70090;43.208;27.904;2024-03-06T10:10:33;101097.59;;;12.04;79.00
11523;BME280;70090;43.208;27.904;2024-03-06T10:13:00;101099.34;;;12.15;79.01
11523;BME280;70090;43.208;27.904;2024-03-06T10:15:27;101101.88;;;12.27;77.41
11523;BME280;70090;43.208;27.904;2024-03-06T10:18:10;101092.41;;;12.28;76.73
11523;BME280;70090;43.208;27.904;2024-03-06T10:20:37;101099.53;;;12.29;75.90
11523;BME280;70090;43.208;27.904;2024-03-06T10:23:06;101107.44;;;12.31;75.62
11523;BME280;70090;43.208;27.904;2024-03-06T10:25:34;101099.63;;;12.36;75.04
11523;BME280;70090;43.208;27.904;2024-03-06T10:28:05;101099.44;;;12.22;74.93
11523;BME280;70090;43.208;27.904;2024-03-06T10:30:33;101093.59;;;12.27;74.79
11523;BME280;70090;43.208;27.904;2024-03-06T10:33:02;101101.16;;;12.30;73.01
11523;BME280;70090;43.208;27.904;2024-03-06T10:35:29;101089.59;;;12.50;73.05
11523;BME280;70090;43.208;27.904;2024-03-06T10:37:56;101089.75;;;12.64;72.18
11523;BME280;70090;43.208;27.904;2024-03-06T10:40:30;101079.66;;;12.75;71.47
11523;BME280;70090;43.208;27.904;2024-03-06T10:42:58;101086.03;;;12.79;70.65
11523;BME280;70090;43.208;27.904;2024-03-06T10:45:40;101084.63;;;12.63;71.19
11523;BME280;70090;43.208;27.904;2024-03-06T10:48:09;101085.00;;;12.61;70.50
11523;BME280;70090;43.208;27.904;2024-03-06T10:50:39;101080.28;;;12.62;70.53
11523;BME280;70090;43.208;27.904;2024-03-06T10:53:09;101079.72;;;12.82;70.15
11523;BME280;70090;43.208;27.904;2024-03-06T10:55:38;101081.50;;;12.94;69.68
11523;BME280;70090;43.208;27.904;2024-03-06T10:58:06;101086.47;;;12.85;69.46
11523;BME280;70090;43.208;27.904;2024-03-06T11:00:36;101075.59;;;12.66;68.69
11523;BME280;70090;43.208;27.904;2024-03-06T11:03:05;101076.16;;;12.82;69.17
11523;BME280;70090;43.208;27.904;2024-03-06T11:05:35;101072.91;;;13.02;68.59
11523;BME280;70090;43.208;27.904;2024-03-06T11:08:05;101077.66;;;13.05;68.47
11523;BME280;70090;43.208;27.904;2024-03-06T11:10:34;101070.66;;;13.15;67.28
11523;BME280;70090;43.208;27.904;2024-03-06T11:13:02;101072.19;;;13.09;66.71
11523;BME280;70090;43.208;27.904;2024-03-06T11:15:30;101071.88;;;13.17;66.38
11523;BME280;70090;43.208;27.904;2024-03-06T11:17:57;101084.13;;;13.20;65.86
11523;BME280;70090;43.208;27.904;2024-03-06T11:20:24;101075.47;;;13.21;65.65
11523;BME280;70090;43.208;27.904;2024-03-06T11:23:07;101074.06;;;13.38;65.52
11523;BME280;70090;43.208;27.904;2024-03-06T11:26:10;101074.13;;;13.48;65.17
11523;BME280;70090;43.208;27.904;2024-03-06T11:28:40;101076.16;;;13.55;64.52
11523;BME280;70090;43.208;27.904;2024-03-06T11:31:16;101070.94;;;13.43;64.66
11523;BME280;70090;43.208;27.904;2024-03-06T11:33:46;101073.25;;;13.37;64.98
11523;BME280;70090;43.208;27.904;2024-03-06T11:36:19;101066.94;;;13.37;66.92
11523;BME280;70090;43.208;27.904;2024-03-06T11:38:48;101072.41;;;13.30;65.74
11523;BME280;70090;43.208;27.904;2024-03-06T11:41:15;101076.94;;;13.12;65.58
11523;BME280;70090;43.208;27.904;2024-03-06T11:43:44;101069.91;;;13.18;68.08
11523;BME280;70090;43.208;27.904;2024-03-06T11:46:11;101061.94;;;13.13;72.88
11523;BME280;70090;43.208;27.904;2024-03-06T11:48:39;101068.22;;;13.10;72.08
11523;BME280;70090;43.208;27.904;2024-03-06T11:51:06;101080.31;;;12.95;72.25
11523;BME280;70090;43.208;27.904;2024-03-06T11:53:34;101070.44;;;12.94;74.65
11523;BME280;70090;43.208;27.904;2024-03-06T11:56:05;101067.88;;;12.82;70.32
11523;BME280;70090;43.208;27.904;2024-03-06T11:58:33;101072.47;;;12.71;68.75
11523;BME280;70090;43.208;27.904;2024-03-06T12:01:01;101074.22;;;12.82;68.68
11523;BME280;70090;43.208;27.904;2024-03-06T12:03:29;101075.97;;;12.94;68.19
11523;BME280;70090;43.208;27.904;2024-03-06T12:05:58;101070.09;;;12.99;68.47
11523;BME280;70090;43.208;27.904;2024-03-06T12:08:25;101074.50;;;13.03;67.87
11523;BME280;70090;43.208;27.904;2024-03-06T12:10:52;101071.69;;;13.00;67.32
11523;BME280;70090;43.208;27.904;2024-03-06T12:13:21;101065.75;;;12.98;67.37
11523;BME280;70090;43.208;27.904;2024-03-06T12:15:48;101061.03;;;13.02;67.84
11523;BME280;70090;43.208;27.904;2024-03-06T12:18:18;101075.38;;;12.81;68.10
11523;BME280;70090;43.208;27.904;2024-03-06T12:20:45;101072.22;;;12.79;68.01
11523;BME280;70090;43.208;27.904;2024-03-06T12:23:21;101073.41;;;12.82;68.40
11523;BME280;70090;43.208;27.904;2024-03-06T12:25:49;101074.97;;;12.79;68.14
11523;BME280;70090;43.208;27.904;2024-03-06T12:28:16;101069.16;;;12.88;67.96
11523;BME280;70090;43.208;27.904;2024-03-06T12:30:43;101068.72;;;12.86;67.76
11523;BME280;70090;43.208;27.904;2024-03-06T12:33:10;101070.28;;;12.83;67.82
11523;BME280;70090;43.208;27.904;2024-03-06T12:35:41;101066.91;;;12.64;68.12
11523;BME280;70090;43.208;27.904;2024-03-06T12:38:12;101066.91;;;12.64;68.71
11523;BME280;70090;43.208;27.904;2024-03-06T12:40:40;101068.13;;;12.70;68.40
11523;BME280;70090;43.208;27.904;2024-03-06T12:43:07;101070.16;;;12.73;67.96